sensor_id;sensor_type;location;lat;lon;timestamp;pressure;altitude;pressure_sealevel;temperature;humidity
69836;BME280;57132;51.972;4.450;2023-02-12T00:01:15;103808.47;;;5.86;100.00
69836;BME280;57132;51.972;4.450;2023-02-12T00:03:40;103802.25;;;5.86;100.00
69836;BME280;57132;51.972;4.450;2023-02-12T00:06:07;103799.63;;;5.86;100.00
69836;BME280;57132;51.972;4.450;2023-02-12T00:08:33;103802.28;;;5.87;100.00
69836;BME280;57132;51.972;4.450;2023-02-12T00:10:59;103803.16;;;5.85;100.00
69836;BME280;57132;51.972;4.450;2023-02-12T00:13:24;103797.84;;;5.85;100.00
69836;BME280;57132;51.972;4.450;2023-02-12T00:15:50;103796.09;;;5.84;100.00
69836;BME280;57132;51.972;4.450;2023-02-12T00:18:15;103798.78;;;5.82;100.00
69836;BME280;57132;51.972;4.450;2023-02-12T00:20:40;103801.41;;;5.81;100.00
69836;BME280;57132;51.972;4.450;2023-02-12T00:23:06;103803.19;;;5.76;100.00
69836;BME280;57132;51.972;4.450;2023-02-12T00:25:32;103799.66;;;5.74;100.00
69836;BME280;57132;51.972;4.450;2023-02-12T00:27:57;103807.63;;;5.72;100.00
69836;BME280;57132;51.972;4.450;2023-02-12T00:30:22;103808.50;;;5.70;100.00
69836;BME280;57132;51.972;4.450;2023-02-12T00:32:48;103799.69;;;5.67;100.00
69836;BME280;57132;51.972;4.450;2023-02-12T00:35:13;103802.31;;;5.66;100.00
69836;BME280;57132;51.972;4.450;2023-02-12T00:37:38;103802.34;;;5.64;100.00
69836;BME280;57132;51.972;4.450;2023-02-12T00:40:05;103798.81;;;5.64;100.00
69836;BME280;57132;51.972;4.450;2023-02-12T00:42:30;103800.56;;;5.65;100.00
69836;BME280;57132;51.972;4.450;2023-02-12T00:44:56;103801.44;;;5.65;100.00
69836;BME280;57132;51.972;4.450;2023-02-12T00:47:21;103801.44;;;5.65;100.00
69836;BME280;57132;51.972;4.450;2023-02-12T00:49:46;103801.47;;;5.67;100.00
69836;BME280;57132;51.972;4.450;2023-02-12T00:52:12;103794.41;;;5.67;100.00
69836;BME280;57132;51.972;4.450;2023-02-12T00:54:37;103802.31;;;5.69;100.00
69836;BME280;57132;51.972;4.450;2023-02-12T00:57:02;103797.03;;;5.69;100.00
69836;BME280;57132;51.972;4.450;2023-02-12T00:59:28;103794.38;;;5.71;100.00
69836;BME280;57132;51.972;4.450;2023-02-12T01:01:54;103792.59;;;5.73;100.00
69836;BME280;57132;51.972;4.450;2023-02-12T01:04:21;103794.38;;;5.75;100.00
69836;BME280;57132;51.972;4.450;2023-02-12T01:06:46;103799.66;;;5.77;100.00
69836;BME280;57132;51.972;4.450;2023-02-12T01:09:12;103794.38;;;5.78;100.00
69836;BME280;57132;51.972;4.450;2023-02-12T01:11:37;103788.16;;;5.81;100.00
69836;BME280;57132;51.972;4.450;2023-02-12T01:14:03;103778.44;;;5.84;100.00
69836;BME280;57132;51.972;4.450;2023-02-12T01:16:29;103793.44;;;5.84;100.00
69836;BME280;57132;51.972;4.450;2023-02-12T01:18:56;103792.56;;;5.82;100.00
69836;BME280;57132;51.972;4.450;2023-02-12T01:21:24;103790.81;;;5.81;100.00
69836;BME280;57132;51.972;4.450;2023-02-12T01:23:50;103790.81;;;5.78;100.00
69836;BME280;57132;51.972;4.450;2023-02-12T01:26:17;103797.91;;;5.76;100.00
69836;BME280;57132;51.972;4.450;2023-02-12T01:28:44;103796.16;;;5.72;100.00
69836;BME280;57132;51.972;4.450;2023-02-12T01:31:11;103794.38;;;5.69;100.00
69836;BME280;57132;51.972;4.450;2023-02-12T01:33:37;103792.63;;;5.66;100.00
69836;BME280;57132;51.972;4.450;2023-02-12T01:36:03;103789.09;;;5.64;100.00
69836;BME280;57132;51.972;4.450;2023-02-12T01:38:28;103796.19;;;5.62;100.00
69836;BME280;57132;51.972;4.450;2023-02-12T01:41:04;103790.00;;;5.60;100.00
69836;BME280;57132;51.972;4.450;2023-02-12T01:43:30;103789.13;;;5.58;100.00
69836;BME280;57132;51.972;4.450;2023-02-12T01:45:58;103787.34;;;5.56;100.00
69836;BME280;57132;51.972;4.450;2023-02-12T01:48:26;103795.28;;;5.54;100.00
69836;BME280;57132;51.972;4.450;2023-02-12T01:50:53;103798.84;;;5.52;100.00
69836;BME280;57132;51.972;4.450;2023-02-12T01:53:21;103792.69;;;5.51;100.00
69836;BME280;57132;51.972;4.450;2023-02-12T01:55:52;103793.56;;;5.52;100.00
69836;BME280;57132;51.972;4.450;2023-02-12T01:58:19;103791.78;;;5.52;100.00
69836;BME280;57132;51.972;4.450;2023-02-12T02:00:45;103792.69;;;5.51;100.00
69836;BME280;57132;51.972;4.450;2023-02-12T02:03:11;103790.88;;;5.50;100.00
69836;BME280;57132;51.972;4.450;2023-02-12T02:05:43;103795.31;;;5.50;100.00
69836;BME280;57132;51.972;4.450;2023-02-12T02:08:11;103804.13;;;5.50;100.00
69836;BME280;57132;51.972;4.450;2023-02-12T02:10:37;103800.59;;;5.50;100.00
69836;BME280;57132;51.972;4.450;2023-02-12T02:13:03;103802.38;;;5.49;100.00
69836;BME280;57132;51.972;4.450;2023-02-12T02:15:50;103800.59;;;5.50;100.00
69836;BME280;57132;51.972;4.450;2023-02-12T02:18:34;103794.44;;;5.49;100.00
69836;BME280;57132;51.972;4.450;2023-02-12T02:23:55;103796.19;;;5.49;100.00
69836;BME280;57132;51.972;4.450;2023-02-12T02:36:51;103794.44;;;5.45;100.00
69836;BME280;57132;51.972;4.450;2023-02-12T02:39:48;103791.78;;;5.45;100.00
69836;BME280;57132;51.972;4.450;2023-02-12T02:42:47;103791.81;;;5.43;100.00
69836;BME280;57132;51.972;4.450;2023-02-12T02:45:42;103791.81;;;5.43;100.00
69836;BME280;57132;51.972;4.450;2023-02-12T02:48:24;103795.31;;;5.45;100.00
69836;BME280;57132;51.972;4.450;2023-02-12T02:51:01;103794.44;;;5.45;100.00
69836;BME280;57132;51.972;4.450;2023-02-12T02:53:36;103789.16;;;5.45;100.00
69836;BME280;57132;51.972;4.450;2023-02-12T02:56:06;103787.38;;;5.43;100.00
69836;BME280;57132;51.972;4.450;2023-02-12T02:58:42;103786.50;;;5.45;100.00
69836;BME280;57132;51.972;4.450;2023-02-12T03:01:33;103782.09;;;5.47;100.00
69836;BME280;57132;51.972;4.450;2023-02-12T03:09:54;103778.50;;;5.57;100.00
69836;BME280;57132;51.972;4.450;2023-02-12T03:12:25;103780.28;;;5.58;100.00
69836;BME280;57132;51.972;4.450;2023-02-12T03:14:58;103781.16;;;5.54;100.00
69836;BME280;57132;51.972;4.450;2023-02-12T03:17:32;103782.03;;;5.54;100.00
69836;BME280;57132;51.972;4.450;2023-02-12T03:20:24;103780.31;;;5.52;100.00
69836;BME280;57132;51.972;4.450;2023-02-12T03:22:57;103784.72;;;5.50;100.00
69836;BME280;57132;51.972;4.450;2023-02-12T03:25:33;103782.94;;;5.50;100.00
69836;BME280;57132;51.972;4.450;2023-02-12T03:28:05;103775.91;;;5.48;100.00
69836;BME280;57132;51.972;4.450;2023-02-12T03:30:44;103776.75;;;5.50;100.00
69836;BME280;57132;51.972;4.450;2023-02-12T03:36:02;103775.00;;;5.49;100.00
69836;BME280;57132;51.972;4.450;2023-02-12T03:39:06;103777.66;;;5.49;100.00
69836;BME280;57132;51.972;4.450;2023-02-12T03:41:42;103779.44;;;5.48;100.00
69836;BME280;57132;51.972;4.450;2023-02-12T03:44:19;103777.66;;;5.49;100.00
69836;BME280;57132;51.972;4.450;2023-02-12T03:46:58;103768.81;;;5.48;100.00
69836;BME280;57132;51.972;4.450;2023-02-12T03:49:32;103767.06;;;5.49;100.00
69836;BME280;57132;51.972;4.450;2023-02-12T03:52:02;103781.19;;;5.48;100.00
69836;BME280;57132;51.972;4.450;2023-02-12T03:54:28;103777.66;;;5.47;100.00
69836;BME280;57132;51.972;4.450;2023-02-12T03:57:01;103779.44;;;5.47;100.00
69836;BME280;57132;51.972;4.450;2023-02-12T03:59:28;103776.75;;;5.50;100.00
69836;BME280;57132;51.972;4.450;2023-02-12T04:01:55;103781.19;;;5.52;100.00
69836;BME280;57132;51.972;4.450;2023-02-12T04:04:23;103777.66;;;5.55;100.00
69836;BME280;57132;51.972;4.450;2023-02-12T04:06:50;103783.81;;;5.55;100.00
69836;BME280;57132;51.972;4.450;2023-02-12T04:09:17;103782.03;;;5.54;100.00
69836;BME280;57132;51.972;4.450;2023-02-12T04:12:14;103784.72;;;5.53;100.00
69836;BME280;57132;51.972;4.450;2023-02-12T04:30:58;103807.66;;;5.54;100.00
69836;BME280;57132;51.972;4.450;2023-02-12T04:33:27;103809.44;;;5.55;100.00
69836;BME280;57132;51.972;4.450;2023-02-12T04:36:04;103818.28;;;5.55;100.00
69836;BME280;57132;51.972;4.450;2023-02-12T04:38:37;103821.78;;;5.57;100.00
69836;BME280;57132;51.972;4.450;2023-02-12T04:41:05;103820.03;;;5.59;100.00
69836;BME280;57132;51.972;4.450;2023-02-12T04:43:35;103821.78;;;5.62;100.00
69836;BME280;57132;51.972;4.450;2023-02-12T04:46:02;103814.72;;;5.62;100.00
69836;BME280;57132;51.972;4.450;2023-02-12T04:48:28;103812.09;;;5.62;100.00
69836;BME280;57132;51.972;4.450;2023-02-12T04:50:53;103823.53;;;5.61;100.00
69836;BME280;57132;51.972;4.450;2023-02-12T04:53:18;103822.66;;;5.61;100.00
69836;BME280;57132;51.972;4.450;2023-02-12T04:55:44;103821.78;;;5.57;100.00
69836;BME280;57132;51.972;4.450;2023-02-12T04:58:11;103820.91;;;5.55;100.00
69836;BME280;57132;51.972;4.450;2023-02-12T05:00:36;103821.81;;;5.56;100.00
69836;BME280;57132;51.972;4.450;2023-02-12T05:03:02;103822.69;;;5.56;100.00
69836;BME280;57132;51.972;4.450;2023-02-12T05:05:28;103822.69;;;5.56;100.00
69836;BME280;57132;51.972;4.450;2023-02-12T05:07:54;103820.91;;;5.55;100.00
69836;BME280;57132;51.972;4.450;2023-02-12T05:10:19;103808.56;;;5.56;100.00
69836;BME280;57132;51.972;4.450;2023-02-12T05:12:46;103813.84;;;5.56;100.00
69836;BME280;57132;51.972;4.450;2023-02-12T05:15:11;103813.84;;;5.57;100.00
69836;BME280;57132;51.972;4.450;2023-02-12T05:17:37;103807.69;;;5.58;100.00
69836;BME280;57132;51.972;4.450;2023-02-12T05:20:03;103805.03;;;5.58;100.00
69836;BME280;57132;51.972;4.450;2023-02-12T05:22:29;103812.09;;;5.59;100.00
69836;BME280;57132;51.972;4.450;2023-02-12T05:24:55;103806.78;;;5.56;100.00
69836;BME280;57132;51.972;4.450;2023-02-12T05:27:21;103809.44;;;5.55;100.00
69836;BME280;57132;51.972;4.450;2023-02-12T05:29:46;103805.03;;;5.52;100.00
69836;BME280;57132;51.972;4.450;2023-02-12T05:32:13;103814.72;;;5.53;100.00
69836;BME280;57132;51.972;4.450;2023-02-12T05:34:38;103812.97;;;5.54;100.00
69836;BME280;57132;51.972;4.450;2023-02-12T05:37:04;103813.84;;;5.53;100.00
69836;BME280;57132;51.972;4.450;2023-02-12T05:39:29;103812.97;;;5.55;100.00
69836;BME280;57132;51.972;4.450;2023-02-12T05:41:56;103808.53;;;5.54;100.00
69836;BME280;57132;51.972;4.450;2023-02-12T05:44:21;103809.44;;;5.52;100.00
69836;BME280;57132;51.972;4.450;2023-02-12T05:46:46;103812.97;;;5.49;100.00
69836;BME280;57132;51.972;4.450;2023-02-12T05:49:13;103812.09;;;5.47;100.00
69836;BME280;57132;51.972;4.450;2023-02-12T05:51:38;103820.94;;;5.45;100.00
69836;BME280;57132;51.972;4.450;2023-02-12T05:54:05;103820.06;;;5.42;100.00
69836;BME280;57132;51.972;4.450;2023-02-12T05:56:33;103820.94;;;5.43;100.00
69836;BME280;57132;51.972;4.450;2023-02-12T05:59:05;103827.13;;;5.40;100.00
69836;BME280;57132;51.972;4.450;2023-02-12T06:01:36;103832.44;;;5.39;100.00
69836;BME280;57132;51.972;4.450;2023-02-12T06:04:03;103813.88;;;5.36;100.00
69836;BME280;57132;51.972;4.450;2023-02-12T06:06:32;103822.72;;;5.35;100.00
69836;BME280;57132;51.972;4.450;2023-02-12T06:08:59;103825.38;;;5.32;100.00
69836;BME280;57132;51.972;4.450;2023-02-12T06:11:25;103825.34;;;5.30;100.00
69836;BME280;57132;51.972;4.450;2023-02-12T06:13:51;103826.25;;;5.28;100.00
69836;BME280;57132;51.972;4.450;2023-02-12T06:18:43;103826.22;;;5.26;100.00
69836;BME280;57132;51.972;4.450;2023-02-12T06:21:08;103821.84;;;5.25;100.00
69836;BME280;57132;51.972;4.450;2023-02-12T06:23:34;103822.72;;;5.24;100.00
69836;BME280;57132;51.972;4.450;2023-02-12T06:25:59;103820.09;;;5.23;100.00
69836;BME280;57132;51.972;4.450;2023-02-12T06:28:24;103820.94;;;5.22;100.00
69836;BME280;57132;51.972;4.450;2023-02-12T06:30:50;103820.06;;;5.21;100.00
69836;BME280;57132;51.972;4.450;2023-02-12T06:33:15;103816.53;;;5.21;100.00
69836;BME280;57132;51.972;4.450;2023-02-12T06:35:40;103814.78;;;5.20;100.00
69836;BME280;57132;51.972;4.450;2023-02-12T06:38:06;103819.22;;;5.19;100.00
69836;BME280;57132;51.972;4.450;2023-02-12T06:40:31;103825.38;;;5.16;100.00
69836;BME280;57132;51.972;4.450;2023-02-12T06:42:58;103822.72;;;5.16;100.00
69836;BME280;57132;51.972;4.450;2023-02-12T06:45:24;103819.19;;;5.16;100.00
69836;BME280;57132;51.972;4.450;2023-02-12T06:47:49;103824.50;;;5.16;100.00
69836;BME280;57132;51.972;4.450;2023-02-12T06:50:15;103825.38;;;5.16;100.00
69836;BME280;57132;51.972;4.450;2023-02-12T06:52:41;103829.78;;;5.16;100.00
69836;BME280;57132;51.972;4.450;2023-02-12T06:55:06;103826.25;;;5.17;100.00
69836;BME280;57132;51.972;4.450;2023-02-12T06:57:31;103831.56;;;5.15;100.00
69836;BME280;57132;51.972;4.450;2023-02-12T06:59:57;103839.50;;;5.17;100.00
69836;BME280;57132;51.972;4.450;2023-02-12T07:02:22;103833.31;;;5.16;100.00
69836;BME280;57132;51.972;4.450;2023-02-12T07:04:47;103833.34;;;5.15;100.00
69836;BME280;57132;51.972;4.450;2023-02-12T07:07:13;103838.63;;;5.15;100.00
69836;BME280;57132;51.972;4.450;2023-02-12T07:09:38;103845.66;;;5.14;100.00
69836;BME280;57132;51.972;4.450;2023-02-12T07:12:05;103854.50;;;5.13;100.00
69836;BME280;57132;51.972;4.450;2023-02-12T07:14:32;103850.97;;;5.11;100.00
69836;BME280;57132;51.972;4.450;2023-02-12T07:16:57;103854.50;;;5.13;100.00
69836;BME280;57132;51.972;4.450;2023-02-12T07:19:24;103850.94;;;5.14;100.00
69836;BME280;57132;51.972;4.450;2023-02-12T07:21:49;103854.50;;;5.15;100.00
69836;BME280;57132;51.972;4.450;2023-02-12T07:24:15;103863.31;;;5.18;100.00
69836;BME280;57132;51.972;4.450;2023-02-12T07:26:42;103862.47;;;5.23;100.00
69836;BME280;57132;51.972;4.450;2023-02-12T07:29:08;103860.66;;;5.26;100.00
69836;BME280;57132;51.972;4.450;2023-02-12T07:31:33;103871.28;;;5.31;100.00
69836;BME280;57132;51.972;4.450;2023-02-12T07:33:59;103865.97;;;5.34;100.00
69836;BME280;57132;51.972;4.450;2023-02-12T07:36:27;103868.59;;;5.34;100.00
69836;BME280;57132;51.972;4.450;2023-02-12T07:38:54;103866.84;;;5.33;100.00
69836;BME280;57132;51.972;4.450;2023-02-12T07:41:22;103874.81;;;5.33;100.00
69836;BME280;57132;51.972;4.450;2023-02-12T07:43:53;103879.22;;;5.32;100.00
69836;BME280;57132;51.972;4.450;2023-02-12T07:46:24;103875.69;;;5.32;100.00
69836;BME280;57132;51.972;4.450;2023-02-12T07:48:54;103880.97;;;5.33;100.00
69836;BME280;57132;51.972;4.450;2023-02-12T07:51:20;103881.00;;;5.35;100.00
69836;BME280;57132;51.972;4.450;2023-02-12T07:53:47;103879.22;;;5.40;100.00
69836;BME280;57132;51.972;4.450;2023-02-12T07:56:21;103882.75;;;5.45;100.00
69836;BME280;57132;51.972;4.450;2023-02-12T07:58:49;103878.31;;;5.50;100.00
69836;BME280;57132;51.972;4.450;2023-02-12T08:01:17;103887.16;;;5.57;100.00
69836;BME280;57132;51.972;4.450;2023-02-12T08:03:44;103880.97;;;5.61;100.00
69836;BME280;57132;51.972;4.450;2023-02-12T08:06:12;103883.63;;;5.67;100.00
69836;BME280;57132;51.972;4.450;2023-02-12T08:08:38;103885.34;;;5.70;100.00
69836;BME280;57132;51.972;4.450;2023-02-12T08:11:11;103890.69;;;5.68;100.00
69836;BME280;57132;51.972;4.450;2023-02-12T08:13:37;103884.50;;;5.67;100.00
69836;BME280;57132;51.972;4.450;2023-02-12T08:16:05;103876.53;;;5.69;100.00
69836;BME280;57132;51.972;4.450;2023-02-12T08:18:31;103880.06;;;5.71;100.00
69836;BME280;57132;51.972;4.450;2023-02-12T08:21:08;103886.25;;;5.75;100.00
69836;BME280;57132;51.972;4.450;2023-02-12T08:23:34;103884.47;;;5.80;100.00
69836;BME280;57132;51.972;4.450;2023-02-12T08:28:29;103882.69;;;5.91;100.00
69836;BME280;57132;51.972;4.450;2023-02-12T08:30:59;103884.47;;;5.95;100.00
69836;BME280;57132;51.972;4.450;2023-02-12T08:33:25;103899.50;;;6.02;100.00
69836;BME280;57132;51.972;4.450;2023-02-12T08:36:00;103899.44;;;6.08;100.00
69836;BME280;57132;51.972;4.450;2023-02-12T08:38:25;103897.69;;;6.15;100.00
69836;BME280;57132;51.972;4.450;2023-02-12T08:40:51;103898.56;;;6.19;100.00
69836;BME280;57132;51.972;4.450;2023-02-12T08:43:16;103907.38;;;6.27;100.00
69836;BME280;57132;51.972;4.450;2023-02-12T08:45:41;103903.81;;;6.28;100.00
69836;BME280;57132;51.972;4.450;2023-02-12T08:48:07;103905.56;;;6.29;100.00
69836;BME280;57132;51.972;4.450;2023-02-12T08:50:33;103902.94;;;6.30;100.00
69836;BME280;57132;51.972;4.450;2023-02-12T08:52:58;103909.09;;;6.32;100.00
69836;BME280;57132;51.972;4.450;2023-02-12T08:55:23;103909.97;;;6.36;100.00
69836;BME280;57132;51.972;4.450;2023-02-12T08:57:49;103911.75;;;6.38;100.00
69836;BME280;57132;51.972;4.450;2023-02-12T09:00:14;103912.59;;;6.40;100.00
69836;BME280;57132;51.972;4.450;2023-02-12T09:02:40;103916.13;;;6.44;100.00
69836;BME280;57132;51.972;4.450;2023-02-12T09:05:05;103918.75;;;6.49;100.00
69836;BME280;57132;51.972;4.450;2023-02-12T09:07:30;103926.72;;;6.52;100.00
69836;BME280;57132;51.972;4.450;2023-02-12T09:09:56;103924.91;;;6.57;100.00
69836;BME280;57132;51.972;4.450;2023-02-12T09:12:21;103924.03;;;6.62;100.00
69836;BME280;57132;51.972;4.450;2023-02-12T09:14:46;103920.47;;;6.63;100.00
69836;BME280;57132;51.972;4.450;2023-02-12T09:17:12;103931.94;;;6.69;100.00
69836;BME280;57132;51.972;4.450;2023-02-12T09:19:38;103934.59;;;6.70;100.00
69836;BME280;57132;51.972;4.450;2023-02-12T09:22:03;103930.16;;;6.74;100.00
69836;BME280;57132;51.972;4.450;2023-02-12T09:24:28;103935.44;;;6.78;100.00
69836;BME280;57132;51.972;4.450;2023-02-12T09:26:55;103934.53;;;6.79;100.00
69836;BME280;57132;51.972;4.450;2023-02-12T09:29:22;103937.19;;;6.79;100.00
69836;BME280;57132;51.972;4.450;2023-02-12T09:31:47;103928.31;;;6.85;100.00
69836;BME280;57132;51.972;4.450;2023-02-12T09:34:13;103940.69;;;6.87;100.00
69836;BME280;57132;51.972;4.450;2023-02-12T09:36:38;103944.22;;;6.91;100.00
69836;BME280;57132;51.972;4.450;2023-02-12T09:39:03;103938.91;;;6.94;100.00
69836;BME280;57132;51.972;4.450;2023-02-12T09:44:19;103932.66;;;7.01;100.00
69836;BME280;57132;51.972;4.450;2023-02-12T09:47:02;103934.44;;;6.99;100.00
69836;BME280;57132;51.972;4.450;2023-02-12T09:52:34;103930.88;;;7.05;100.00
69836;BME280;57132;51.972;4.450;2023-02-12T09:55:01;103930.81;;;7.08;100.00
69836;BME280;57132;51.972;4.450;2023-02-12T09:57:35;103936.13;;;7.11;100.00
69836;BME280;57132;51.972;4.450;2023-02-12T10:02:40;103931.69;;;7.14;100.00
69836;BME280;57132;51.972;4.450;2023-02-12T10:05:14;103936.97;;;7.18;100.00
69836;BME280;57132;51.972;4.450;2023-02-12T10:08:06;103928.09;;;7.22;100.00
69836;BME280;57132;51.972;4.450;2023-02-12T10:30:03;103934.94;;;7.50;100.00
69836;BME280;57132;51.972;4.450;2023-02-12T10:32:40;103934.94;;;7.50;100.00
69836;BME280;57132;51.972;4.450;2023-02-12T10:35:15;103940.25;;;7.53;100.00
69836;BME280;57132;51.972;4.450;2023-02-12T10:37:49;103934.00;;;7.56;100.00
69836;BME280;57132;51.972;4.450;2023-02-12T10:40:24;103940.19;;;7.59;100.00
69836;BME280;57132;51.972;4.450;2023-02-12T10:42:52;103933.06;;;7.63;100.00
69836;BME280;57132;51.972;4.450;2023-02-12T10:45:31;103941.91;;;7.67;100.00
69836;BME280;57132;51.972;4.450;2023-02-12T10:48:29;103933.84;;;7.77;100.00
69836;BME280;57132;51.972;4.450;2023-02-12T10:53:54;103933.78;;;7.82;99.83
69836;BME280;57132;51.972;4.450;2023-02-12T10:56:21;103933.78;;;7.82;99.42
69836;BME280;57132;51.972;4.450;2023-02-12T10:58:57;103940.88;;;7.84;99.68
69836;BME280;57132;51.972;4.450;2023-02-12T11:01:35;103939.97;;;7.85;98.45
69836;BME280;57132;51.972;4.450;2023-02-12T11:09:41;103932.88;;;7.83;98.84
69836;BME280;57132;51.972;4.450;2023-02-12T11:12:34;103924.91;;;7.80;97.99
69836;BME280;57132;51.972;4.450;2023-02-12T11:15:03;103925.75;;;7.88;98.28
69836;BME280;57132;51.972;4.450;2023-02-12T11:17:36;103924.84;;;7.87;98.13
69836;BME280;57132;51.972;4.450;2023-02-12T11:20:07;103923.09;;;7.86;97.04
69836;BME280;57132;51.972;4.450;2023-02-12T11:22:54;103930.19;;;7.86;96.75
69836;BME280;57132;51.972;4.450;2023-02-12T11:25:22;103929.34;;;7.84;95.86
69836;BME280;57132;51.972;4.450;2023-02-12T11:28:12;103931.97;;;7.85;96.10
69836;BME280;57132;51.972;4.450;2023-02-12T11:30:53;103923.94;;;7.90;96.22
69836;BME280;57132;51.972;4.450;2023-02-12T11:33:32;103924.81;;;7.94;96.33
69836;BME280;57132;51.972;4.450;2023-02-12T11:36:11;103922.09;;;7.98;96.95
69836;BME280;57132;51.972;4.450;2023-02-12T11:38:56;103927.34;;;8.06;97.40
69836;BME280;57132;51.972;4.450;2023-02-12T11:41:30;103922.06;;;8.01;96.31
69836;BME280;57132;51.972;4.450;2023-02-12T11:44:12;103919.38;;;8.03;95.94
69836;BME280;57132;51.972;4.450;2023-02-12T11:47:04;103915.84;;;8.04;97.00
69836;BME280;57132;51.972;4.450;2023-02-12T11:49:55;103916.72;;;8.03;95.15
69836;BME280;57132;51.972;4.450;2023-02-12T11:52:28;103907.03;;;7.97;92.79
69836;BME280;57132;51.972;4.450;2023-02-12T11:54:59;103914.13;;;7.97;93.05
69836;BME280;57132;51.972;4.450;2023-02-12T12:00:11;103918.63;;;7.90;93.02
69836;BME280;57132;51.972;4.450;2023-02-12T12:02:42;103911.59;;;7.83;93.74
69836;BME280;57132;51.972;4.450;2023-02-12T12:05:16;103908.06;;;7.82;93.64
69836;BME280;57132;51.972;4.450;2023-02-12T12:07:53;103905.44;;;7.81;93.99
69836;BME280;57132;51.972;4.450;2023-02-12T12:10:43;103906.25;;;7.89;94.06
69836;BME280;57132;51.972;4.450;2023-02-12T12:13:17;103916.03;;;7.85;94.02
69836;BME280;57132;51.972;4.450;2023-02-12T12:15:49;103901.81;;;7.86;93.61
69836;BME280;57132;51.972;4.450;2023-02-12T12:19:04;103895.50;;;7.95;93.93
69836;BME280;57132;51.972;4.450;2023-02-12T12:22:10;103910.69;;;7.88;93.22
69836;BME280;57132;51.972;4.450;2023-02-12T12:24:56;103903.63;;;7.84;92.52
69836;BME280;57132;51.972;4.450;2023-02-12T12:27:42;103900.13;;;7.81;93.61
69836;BME280;57132;51.972;4.450;2023-02-12T12:46:26;103884.28;;;7.69;94.52
69836;BME280;57132;51.972;4.450;2023-02-12T13:00:26;103879.84;;;7.68;94.93
69836;BME280;57132;51.972;4.450;2023-02-12T13:05:55;103864.81;;;7.68;94.21
69836;BME280;57132;51.972;4.450;2023-02-12T13:08:33;103868.34;;;7.67;94.48
69836;BME280;57132;51.972;4.450;2023-02-12T13:14:37;103855.91;;;7.69;94.30
69836;BME280;57132;51.972;4.450;2023-02-12T13:22:07;103851.50;;;7.67;93.97
69836;BME280;57132;51.972;4.450;2023-02-12T13:25:02;103854.25;;;7.60;93.51
69836;BME280;57132;51.972;4.450;2023-02-12T13:27:39;103850.69;;;7.60;94.77
69836;BME280;57132;51.972;4.450;2023-02-12T13:33:28;103850.66;;;7.63;94.50
69836;BME280;57132;51.972;4.450;2023-02-12T13:35:28;103844.41;;;7.67;95.30
69836;BME280;57132;51.972;4.450;2023-02-12T13:37:55;103842.63;;;7.68;95.76
69836;BME280;57132;51.972;4.450;2023-02-12T13:40:27;103840.00;;;7.66;95.35
69836;BME280;57132;51.972;4.450;2023-02-12T13:45:55;103832.84;;;7.73;94.23
69836;BME280;57132;51.972;4.450;2023-02-12T13:53:54;103839.84;;;7.80;93.39
69836;BME280;57132;51.972;4.450;2023-02-12T13:56:42;103831.91;;;7.75;92.44
69836;BME280;57132;51.972;4.450;2023-02-12T14:01:54;103830.25;;;7.68;93.20
69836;BME280;57132;51.972;4.450;2023-02-12T14:07:06;103824.00;;;7.69;94.01
69836;BME280;57132;51.972;4.450;2023-02-12T14:12:01;103808.97;;;7.67;94.84
69836;BME280;57132;51.972;4.450;2023-02-12T14:14:31;103812.53;;;7.66;94.63
69836;BME280;57132;51.972;4.450;2023-02-12T14:27:46;103813.47;;;7.61;94.26
69836;BME280;57132;51.972;4.450;2023-02-12T14:40:44;103803.81;;;7.51;95.34
69836;BME280;57132;51.972;4.450;2023-02-12T14:43:36;103802.06;;;7.50;95.64
69836;BME280;57132;51.972;4.450;2023-02-12T14:49:00;103809.25;;;7.41;94.33
69836;BME280;57132;51.972;4.450;2023-02-12T14:51:42;103796.91;;;7.36;94.07
69836;BME280;57132;51.972;4.450;2023-02-12T14:57:03;103802.19;;;7.38;94.38
69836;BME280;57132;51.972;4.450;2023-02-12T14:59:33;103803.09;;;7.35;94.13
69836;BME280;57132;51.972;4.450;2023-02-12T15:02:03;103806.66;;;7.34;94.34
69836;BME280;57132;51.972;4.450;2023-02-12T15:04:32;103803.09;;;7.32;94.24
69836;BME280;57132;51.972;4.450;2023-02-12T15:07:06;103795.16;;;7.31;94.53
69836;BME280;57132;51.972;4.450;2023-02-12T15:09:50;103800.47;;;7.34;94.18
69836;BME280;57132;51.972;4.450;2023-02-12T15:12:20;103793.41;;;7.30;94.83
69836;BME280;57132;51.972;4.450;2023-02-12T15:17:51;103790.81;;;7.22;94.24
69836;BME280;57132;51.972;4.450;2023-02-12T15:20:22;103785.47;;;7.24;94.57
69836;BME280;57132;51.972;4.450;2023-02-12T15:22:49;103784.63;;;7.20;94.37
69836;BME280;57132;51.972;4.450;2023-02-12T15:25:30;103787.28;;;7.20;94.85
69836;BME280;57132;51.972;4.450;2023-02-12T15:28:14;103789.94;;;7.25;94.97
69836;BME280;57132;51.972;4.450;2023-02-12T15:30:42;103784.63;;;7.20;95.46
69836;BME280;57132;51.972;4.450;2023-02-12T15:33:15;103789.97;;;7.19;96.06
69836;BME280;57132;51.972;4.450;2023-02-12T15:35:44;103791.75;;;7.17;96.88
69836;BME280;57132;51.972;4.450;2023-02-12T15:38:19;103787.34;;;7.12;97.43
69836;BME280;57132;51.972;4.450;2023-02-12T15:40:58;103785.66;;;7.07;96.00
69836;BME280;57132;51.972;4.450;2023-02-12T15:43:29;103790.97;;;7.04;95.09
69836;BME280;57132;51.972;4.450;2023-02-12T15:46:03;103783.03;;;7.02;94.71
69836;BME280;57132;51.972;4.450;2023-02-12T15:48:34;103782.13;;;7.03;95.11
69836;BME280;57132;51.972;4.450;2023-02-12T15:53:44;103777.72;;;7.02;96.36
69836;BME280;57132;51.972;4.450;2023-02-12T15:56:12;103780.38;;;7.02;96.24
69836;BME280;57132;51.972;4.450;2023-02-12T15:58:53;103782.16;;;7.02;95.63
69836;BME280;57132;51.972;4.450;2023-02-12T16:01:24;103784.81;;;7.00;94.75
69836;BME280;57132;51.972;4.450;2023-02-12T16:03:53;103784.81;;;7.00;94.59